ETEB/QOB METAR and TAF weather

Enter ICAO airport designator
Station Type Date Time Source
ETEB METAR 2019/08/24 19:56 UTC NOAA

ETEB 241956Z AUTO 00000KT 9999 FEW050 23/17 A3013 RMK AO2 SLP199 T02300165 $


Station Type Date Time Source
ETEB Decoded METAR 2019/08/24 19:56 UTC NOAA

Station name not available
Aug 24, 2019 - 03:56 PM EDT / 2019.08.24 1956 UTC
Wind: Calm:0
Visibility: greater than 7 mile(s):0
Sky conditions: mostly clear
Temperature: 73.4 F (23.0 C)
Dew Point: 61.7 F (16.5 C)
Relative Humidity: 66%
Pressure (altimeter): 30.13 in. Hg (1020 hPa)
ob: ETEB 241956Z AUTO 00000KT 9999 FEW050 23/17 A3013 RMK AO2 SLP199 T02300165
cycle: 20

Station Type Date Time Source
ETEB TAF 2019/08/23 13:11 UTC NOAA

TAF ETEB 231300Z 2313/2419 07012KT 9999 SKC QNH3020INS
BECMG 2318/2319 VRB06KT 9999 SKC QNH3021INS
BECMG 2406/2407 06009KT 9999 BKN030 QNH3019INS TX23/2313Z TN11/2403Z LAST NO
AMDS AFT 2316 NEXT 2604

Example: see airport list